Time;durP1;ratioP1;P1;durP2;ratioP2;P2;SDS_P1;SDS_P2;PMS_P1;PMS_P2;Temp;Humidity;BMP_temperature;BMP_pressure;BME280_temperature;BME280_humidity;BME280_pressure;Samples;Min_cycle;Max_cycle;Signal;HPM_P1;HPM_P2
2021/11/12 00:12:33;;;;;;;12.07;6.80;;;;;;;1.64;100.00;95778.13;5049736;28;20777;-68
2021/11/12 00:15:00;;;;;;;16.77;7.03;;;;;;;1.59;100.00;95762.38;5046952;28;20103;-67
2021/11/12 00:17:32;;;;;;;12.57;7.18;;;;;;;1.71;100.00;95771.44;5047524;28;20094;-68
2021/11/12 00:19:59;;;;;;;13.02;8.38;;;;;;;1.74;100.00;95769.50;5048232;28;20052;-68
2021/11/12 00:22:27;;;;;;;14.90;6.78;;;;;;;1.82;100.00;95772.09;5046381;28;20052;-68
2021/11/12 00:24:56;;;;;;;10.95;6.55;;;;;;;1.91;100.00;95766.88;5030200;28;20136;-68
2021/11/12 00:27:24;;;;;;;15.18;7.07;;;;;;;1.93;100.00;95766.72;5044295;28;20087;-67
2021/11/12 00:35:14;;;;;;;12.38;7.05;;;;;;;2.12;100.00;95759.72;5044813;28;20040;-68
2021/11/12 00:37:54;;;;;;;11.20;6.63;;;;;;;2.15;100.00;95756.84;5044550;28;20037;-67
2021/11/12 00:45:36;;;;;;;10.82;5.72;;;;;;;2.34;99.56;95755.75;5045279;28;20125;-68
2021/11/12 00:55:28;;;;;;;22.50;9.68;;;;;;;2.25;97.34;95757.50;5044141;28;20055;-67
2021/11/12 00:57:56;;;;;;;13.80;8.05;;;;;;;2.10;97.50;95755.53;5044144;28;20037;-67
2021/11/12 01:00:26;;;;;;;14.43;6.78;;;;;;;2.05;97.14;95756.94;5042589;28;20040;-68
2021/11/12 01:02:54;;;;;;;15.25;9.13;;;;;;;2.04;97.31;95755.34;5043011;28;20124;-67
2021/11/12 01:05:21;;;;;;;15.40;8.52;;;;;;;1.80;97.55;95732.91;5043547;28;20079;-68
2021/11/12 01:07:49;;;;;;;13.50;7.80;;;;;;;1.84;97.50;95744.53;5042369;28;20116;-68
2021/11/12 01:10:17;;;;;;;14.07;8.52;;;;;;;1.75;98.28;95747.97;5042396;28;20531;-67
2021/11/12 01:12:49;;;;;;;32.53;11.18;;;;;;;1.80;98.28;95748.34;5043343;28;20048;-67
2021/11/12 01:15:17;;;;;;;21.10;10.45;;;;;;;1.69;98.49;95747.66;5044311;28;20522;-68
2021/11/12 01:17:44;;;;;;;26.67;10.93;;;;;;;1.63;99.23;95753.41;5024778;28;20471;-68
2021/11/12 01:20:15;;;;;;;24.35;12.02;;;;;;;1.50;99.35;95742.75;5043255;28;20045;-67
2021/11/12 01:22:43;;;;;;;24.95;10.45;;;;;;;1.44;100.00;95744.16;5042014;28;20040;-67
2021/11/12 01:25:11;;;;;;;21.17;10.55;;;;;;;1.50;99.90;95747.88;5043123;28;20079;-68
2021/11/12 01:27:39;;;;;;;22.52;11.85;;;;;;;1.37;100.00;95743.16;5043542;28;20038;-68
2021/11/12 01:30:08;;;;;;;22.45;11.65;;;;;;;1.44;100.00;95743.31;5043091;28;20499;-68
2021/11/12 01:32:35;;;;;;;26.77;12.77;;;;;;;1.46;100.00;95743.97;5043739;28;20041;-67
2021/11/12 01:35:04;;;;;;;20.65;11.60;;;;;;;1.40;100.00;95735.13;5042480;28;20510;-68
2021/11/12 01:37:33;;;;;;;23.77;12.65;;;;;;;1.43;100.00;95741.75;5041923;28;20041;-67
2021/11/12 01:40:06;;;;;;;29.67;13.27;;;;;;;1.46;99.90;95737.09;5042072;28;20049;-67
2021/11/12 01:43:14;;;;;;;25.33;12.77;;;;;;;1.48;99.60;95744.66;5040823;28;20045;-67
2021/11/12 01:50:56;;;;;;;29.70;13.82;;;;;;;1.31;99.75;95728.34;5042686;28;20041;-67
2021/11/12 01:53:36;;;;;;;25.50;12.57;;;;;;;1.33;99.98;95737.50;5042722;28;20041;-67
2021/11/12 02:01:49;;;;;;;27.92;11.73;;;;;;;0.81;100.00;95716.94;5043001;28;20049;-68
2021/11/12 02:04:19;;;;;;;;;;;;;;;0.92;100.00;95726.97;5041998;28;20087;-67
2021/11/12 02:06:46;;;;;;;18.33;9.45;;;;;;;0.84;100.00;95726.88;5041066;28;19921;-67
2021/11/12 02:09:19;;;;;;;18.50;9.77;;;;;;;0.86;100.00;95724.19;5040996;28;20037;-67
2021/11/12 02:11:52;;;;;;;22.92;10.40;;;;;;;0.88;100.00;95717.97;5040910;28;20049;-67
2021/11/12 02:14:21;;;;;;;27.73;11.40;;;;;;;0.89;99.96;95718.75;5041924;28;20036;-67
2021/11/12 02:17:13;;;;;;;19.58;10.77;;;;;;;0.68;100.00;95708.81;5041909;28;20037;-67
2021/11/12 02:19:48;;;;;;;21.80;10.52;;;;;;;0.44;100.00;95705.06;5041748;28;20049;-67
2021/11/12 02:22:17;;;;;;;20.23;11.07;;;;;;;0.50;100.00;95719.84;5042345;28;20437;-67
2021/11/12 02:24:53;;;;;;;22.10;11.27;;;;;;;0.59;100.00;95709.69;5042639;28;20033;-67
2021/11/12 02:27:25;;;;;;;20.63;11.48;;;;;;;0.65;100.00;95711.66;5041547;28;20070;-67
2021/11/12 02:29:55;;;;;;;30.08;11.88;;;;;;;0.68;100.00;95712.16;5041058;28;20048;-67
2021/11/12 02:32:27;;;;;;;22.70;12.63;;;;;;;0.66;100.00;95705.59;5042252;28;20037;-67
2021/11/12 02:34:58;;;;;;;28.25;12.55;;;;;;;0.69;100.00;95707.88;5040156;28;20098;-68
2021/11/12 02:37:27;;;;;;;24.83;12.20;;;;;;;0.65;99.88;95706.53;5023623;28;20064;-67
2021/11/12 02:39:55;;;;;;;26.65;12.35;;;;;;;0.64;99.29;95704.94;5041654;28;20037;-67
2021/11/12 02:42:24;;;;;;;29.92;14.15;;;;;;;0.63;99.46;95713.56;5041095;28;20056;-67
2021/11/12 02:44:51;;;;;;;26.45;12.73;;;;;;;0.61;99.32;95710.34;5041296;28;20099;-67
2021/11/12 02:47:19;;;;;;;27.48;11.88;;;;;;;0.57;99.04;95708.06;5041250;28;20433;-67
2021/11/12 02:49:47;;;;;;;26.00;12.82;;;;;;;0.47;98.74;95689.41;5023485;28;20095;-67
2021/11/12 02:52:19;;;;;;;31.45;14.52;;;;;;;0.57;98.72;95705.50;5041204;28;20546;-67
2021/11/12 02:54:47;;;;;;;26.00;12.68;;;;;;;0.48;100.00;95701.25;5042575;28;20049;-67
2021/11/12 02:57:14;;;;;;;29.27;13.60;;;;;;;0.28;100.00;95697.25;5040531;28;20045;-67
2021/11/12 02:59:41;;;;;;;27.05;12.63;;;;;;;0.22;100.00;95683.25;5041200;28;20045;-66
2021/11/12 03:02:09;;;;;;;28.38;13.25;;;;;;;0.34;100.00;95694.09;5042264;28;20037;-67
2021/11/12 03:04:36;;;;;;;29.35;12.90;;;;;;;0.10;100.00;95694.66;5040720;28;20046;-68
2021/11/12 03:07:03;;;;;;;27.75;13.18;;;;;;;0.15;100.00;95690.72;5023700;28;20088;-67
2021/11/12 03:09:33;;;;;;;37.45;15.50;;;;;;;0.15;100.00;95690.72;5038261;28;20048;-67
2021/11/12 03:12:01;;;;;;;32.38;14.65;;;;;;;0.14;100.00;95689.09;5042067;28;20734;-67
2021/11/12 03:14:29;;;;;;;25.60;14.00;;;;;;;0.17;100.00;95685.44;5041275;28;20469;-67
2021/11/12 03:16:56;;;;;;;22.15;12.15;;;;;;;0.18;100.00;95690.44;5040817;28;20051;-67
2021/11/12 03:19:25;;;;;;;24.58;13.35;;;;;;;0.13;100.00;95674.69;5041919;28;20041;-67
2021/11/12 03:21:59;;;;;;;24.85;12.95;;;;;;;0.21;99.84;95681.63;5040082;28;20044;-67
2021/11/12 03:25:11;;;;;;;28.42;13.45;;;;;;;0.15;99.72;95680.47;5041786;28;20045;-67
2021/11/12 03:27:24;;;;;;;26.15;12.77;;;;;;;0.17;98.99;95683.69;5032516;28;20123;-67
2021/11/12 05:44:14;;;;;;;39.67;18.25;;;;;;;-0.81;100.00;95667.19;5043814;28;20444;-68
2021/11/12 05:47:03;;;;;;;37.05;19.15;;;;;;;-0.70;100.00;95684.94;5041448;28;20053;-67
2021/11/12 05:55:06;;;;;;;36.30;18.05;;;;;;;-0.62;100.00;95672.22;5036224;28;20044;-67
2021/11/12 05:57:34;;;;;;;42.35;18.08;;;;;;;-0.60;100.00;95675.44;5037419;28;20521;-67
2021/11/12 06:00:04;;;;;;;48.97;21.73;;;;;;;-0.55;100.00;95681.91;5042379;28;20043;-67
2021/11/12 06:02:31;;;;;;;57.75;20.92;;;;;;;-0.51;100.00;95675.56;5038714;28;20041;-68
2021/11/12 06:04:58;;;;;;;37.92;19.70;;;;;;;-0.44;100.00;95679.16;5040561;28;20070;-67
2021/11/12 06:07:25;;;;;;;40.08;17.50;;;;;;;-0.38;100.00;95683.72;5040829;28;20041;-67
2021/11/12 06:09:52;;;;;;;62.17;28.45;;;;;;;-0.42;100.00;95677.28;5040697;28;20044;-67
2021/11/12 06:12:19;;;;;;;52.13;26.85;;;;;;;-0.38;100.00;95673.47;5043408;28;20565;-67
2021/11/12 06:14:46;;;;;;;48.83;23.45;;;;;;;-0.15;100.00;95683.34;5043059;28;20045;-68
2021/11/12 06:17:13;;;;;;;52.60;21.05;;;;;;;-0.16;100.00;95662.06;5042298;28;20048;-67
2021/11/12 06:19:40;;;;;;;70.47;28.42;;;;;;;0.00;100.00;95676.81;5042168;28;20044;-66
2021/11/12 06:22:07;;;;;;;79.07;29.95;;;;;;;0.07;100.00;95675.25;5041156;28;20039;-66
2021/11/12 06:24:35;;;;;;;53.33;22.48;;;;;;;0.18;100.00;95674.22;5040415;28;20049;-66
2021/11/12 06:27:02;;;;;;;29.92;15.38;;;;;;;0.26;100.00;95676.88;5042512;28;20536;-67
2021/11/12 06:29:29;;;;;;;34.38;13.88;;;;;;;0.30;100.00;95673.06;5040707;28;20030;-67
2021/11/12 06:31:56;;;;;;;30.42;14.65;;;;;;;0.42;100.00;95676.22;5041412;28;20422;-67
2021/11/12 06:34:23;;;;;;;45.03;18.67;;;;;;;0.49;100.00;95666.19;5041597;28;20045;-67
2021/11/12 06:36:51;;;;;;;38.42;17.63;;;;;;;0.58;100.00;95670.44;5040403;28;20052;-67
2021/11/12 06:39:19;;;;;;;40.10;17.38;;;;;;;0.59;100.00;95671.22;5041130;28;20052;-67
2021/11/12 06:49:54;;;;;;;36.20;17.02;;;;;;;1.10;100.00;95674.81;5004210;28;20053;-67
2021/11/12 06:52:24;;;;;;;36.65;17.90;;;;;;;1.25;100.00;95673.28;5041311;28;20620;-67
2021/11/12 06:54:51;;;;;;;41.50;18.20;;;;;;;1.31;100.00;95671.88;5041897;28;20056;-67
2021/11/12 06:57:21;;;;;;;49.72;19.77;;;;;;;1.45;100.00;95673.06;5040862;28;20064;-67
2021/11/12 06:59:49;;;;;;;39.95;19.02;;;;;;;1.52;100.00;95668.94;5042136;28;20052;-68
2021/11/12 07:02:18;;;;;;;61.00;24.58;;;;;;;1.66;100.00;95665.78;5040696;28;20052;-67
2021/11/12 07:04:45;;;;;;;37.40;15.32;;;;;;;1.76;100.00;95664.84;5041885;28;20124;-67
2021/11/12 07:07:13;;;;;;;30.48;15.15;;;;;;;1.64;100.00;95652.28;5040234;28;20059;-67
2021/11/12 07:09:39;;;;;;;34.78;16.55;;;;;;;1.83;100.00;95650.44;5039552;28;20034;-66
2021/11/12 07:12:07;;;;;;;31.98;16.30;;;;;;;1.79;100.00;95637.09;5041821;28;20041;-67
2021/11/12 07:14:35;;;;;;;40.95;19.92;;;;;;;2.04;100.00;95658.50;5041790;28;20050;-67
2021/11/12 07:17:03;;;;;;;33.63;16.13;;;;;;;2.10;100.00;95637.31;5024576;28;20063;-67
2021/11/12 07:19:30;;;;;;;32.70;16.10;;;;;;;2.29;100.00;95643.13;5021125;28;20052;-67
2021/11/12 07:22:01;;;;;;;25.17;12.15;;;;;;;2.44;100.00;95659.53;5040821;28;20580;-67
2021/11/12 07:24:29;;;;;;;28.73;13.90;;;;;;;2.59;100.00;95646.84;5020958;28;20057;-67
2021/11/12 07:26:56;;;;;;;24.70;12.60;;;;;;;2.77;100.00;95654.38;5039781;28;20048;-68
2021/11/12 07:29:25;;;;;;;26.45;14.57;;;;;;;2.94;100.00;95649.25;5042097;28;20049;-67
2021/11/12 07:31:54;;;;;;;27.08;13.68;;;;;;;3.02;100.00;95647.44;5040158;28;20057;-67
2021/11/12 07:34:24;;;;;;;33.38;15.10;;;;;;;3.16;99.54;95637.44;5040069;28;20041;-68
2021/11/12 07:36:54;;;;;;;29.60;13.45;;;;;;;3.25;99.50;95634.69;5044882;28;20083;-68
2021/11/12 07:39:26;;;;;;;27.27;13.88;;;;;;;3.36;98.63;95622.44;5044559;28;20037;-68
2021/11/12 07:44:33;;;;;;;19.10;11.00;;;;;;;3.80;96.95;95629.66;5044871;28;20055;-67
2021/11/12 07:47:12;;;;;;;20.00;10.00;;;;;;;3.92;93.75;95628.28;5041955;28;20060;-66
2021/11/12 07:49:44;;;;;;;18.27;10.48;;;;;;;3.88;93.84;95627.03;5044094;28;20052;-67
2021/11/12 07:52:11;;;;;;;22.58;13.05;;;;;;;3.97;94.25;95626.00;5024128;28;20045;-67
2021/11/12 07:54:39;;;;;;;32.38;14.15;;;;;;;4.11;93.90;95627.06;5045020;28;20059;-67
2021/11/12 07:57:07;;;;;;;41.72;14.65;;;;;;;4.25;94.10;95622.97;5041501;28;20041;-67
2021/11/12 07:59:36;;;;;;;26.88;12.15;;;;;;;4.40;92.82;95626.38;5045165;28;20047;-68
2021/11/12 08:02:05;;;;;;;17.65;10.75;;;;;;;4.48;91.71;95627.28;5044975;28;20037;-68
2021/11/12 08:04:33;;;;;;;33.40;12.00;;;;;;;4.59;91.54;95625.13;5045074;28;20065;-69
2021/11/12 08:07:01;;;;;;;43.20;23.95;;;;;;;4.76;92.13;95623.19;5025834;28;20063;-69
2021/11/12 08:09:40;;;;;;;23.80;14.38;;;;;;;4.94;91.18;95622.88;5044808;28;20036;-68
2021/11/12 08:12:10;;;;;;;22.25;10.70;;;;;;;5.12;89.42;95619.94;5045285;28;20040;-69
2021/11/12 08:22:45;;;;;;;18.90;11.68;;;;;;;5.43;88.03;95600.88;5045440;28;20502;-69
2021/11/12 08:36:00;;;;;;;19.80;11.18;;;;;;;6.20;84.80;95612.53;5044904;28;20037;-70
2021/11/12 08:41:18;;;;;;;36.97;15.80;;;;;;;6.34;82.51;95612.63;5026169;28;20110;-71
2021/11/12 08:43:57;;;;;;;18.27;10.48;;;;;;;6.30;81.79;95607.84;5025012;28;20049;-70
2021/11/12 08:46:29;;;;;;;20.95;10.23;;;;;;;6.43;82.55;95606.38;5045302;28;20045;-71
2021/11/12 08:49:02;;;;;;;20.10;10.82;;;;;;;6.41;81.05;95587.63;5044525;28;20045;-71
2021/11/12 08:51:34;;;;;;;20.23;10.88;;;;;;;6.56;81.81;95597.94;5044712;28;20678;-71
2021/11/12 08:54:03;;;;;;;25.55;11.95;;;;;;;6.67;82.76;95605.97;5045646;28;20037;-72
2021/11/12 08:56:31;;;;;;;28.13;14.40;;;;;;;6.88;82.79;95594.78;5045433;28;20051;-70
2021/11/12 08:58:58;;;;;;;19.23;11.30;;;;;;;7.13;83.18;95585.75;5044050;28;20398;-71
2021/11/12 09:01:25;;;;;;;25.20;13.10;;;;;;;7.47;80.36;95593.53;5043116;28;20052;-71
2021/11/12 09:03:54;;;;;;;21.55;11.32;;;;;;;7.73;78.49;95592.03;5043098;28;20072;-72
2021/11/12 09:06:24;;;;;;;21.90;12.18;;;;;;;7.94;78.19;95572.16;5044418;28;20056;-72
2021/11/12 09:08:52;;;;;;;23.55;13.40;;;;;;;8.24;76.82;95572.59;5044862;28;20068;-73
2021/11/12 09:11:19;;;;;;;20.77;11.38;;;;;;;8.48;74.24;95581.66;5043252;28;20045;-73
2021/11/12 09:13:53;;;;;;;15.10;9.57;;;;;;;8.53;74.02;95563.66;5027048;28;20059;-72
2021/11/12 09:16:29;;;;;;;23.58;11.73;;;;;;;8.87;74.10;95574.84;5044935;28;20052;-72
2021/11/12 09:19:00;;;;;;;18.83;9.77;;;;;;;9.15;71.32;95573.81;5026007;28;20051;-71
2021/11/12 09:21:27;;;;;;;23.02;9.75;;;;;;;9.43;71.04;95570.94;5044479;28;20510;-71
2021/11/12 09:23:56;;;;;;;14.13;8.70;;;;;;;9.73;69.76;95576.41;5044356;28;20418;-71
2021/11/12 09:26:24;;;;;;;18.60;10.27;;;;;;;9.96;66.86;95564.72;5044640;28;20056;-72
2021/11/12 09:28:51;;;;;;;19.95;11.10;;;;;;;9.93;65.21;95554.72;5043820;28;20048;-71
2021/11/12 09:31:20;;;;;;;19.25;10.43;;;;;;;9.73;64.68;95558.22;5044408;28;20048;-71
2021/11/12 09:33:47;;;;;;;21.10;11.80;;;;;;;10.08;64.84;95552.63;5042614;28;20041;-71
2021/11/12 09:36:14;;;;;;;18.45;10.13;;;;;;;10.17;63.29;95550.56;5044928;28;20048;-71
2021/11/12 09:38:44;;;;;;;16.90;9.32;;;;;;;10.38;64.07;95539.03;5043838;28;20044;-71
2021/11/12 09:41:11;;;;;;;26.20;11.52;;;;;;;10.27;63.44;95544.91;5042291;28;20047;-70
2021/11/12 09:43:38;;;;;;;18.13;11.10;;;;;;;10.59;62.72;95527.47;5042664;28;20090;-71
2021/11/12 09:46:06;;;;;;;18.90;10.52;;;;;;;10.93;60.59;95532.34;5042303;28;20049;-71
2021/11/12 09:48:34;;;;;;;20.63;10.25;;;;;;;11.31;61.29;95539.19;5041159;28;20048;-71
2021/11/12 09:51:01;;;;;;;14.93;9.77;;;;;;;11.23;62.00;95528.03;5042034;28;20040;-71
2021/11/12 09:53:29;;;;;;;18.60;10.05;;;;;;;11.34;58.08;95533.53;5042772;28;20045;-71
2021/11/12 09:55:56;;;;;;;17.25;9.38;;;;;;;11.43;57.34;95524.41;5043353;28;20052;-71
2021/11/12 09:58:23;;;;;;;18.75;9.63;;;;;;;11.72;56.89;95527.25;5042736;28;20045;-71
2021/11/12 10:00:58;;;;;;;13.85;9.68;;;;;;;12.16;55.23;95504.41;5043225;28;20439;-71
2021/11/12 10:03:43;;;;;;;15.65;8.98;;;;;;;12.77;53.08;95495.38;5043094;28;20091;-71
2021/11/12 10:06:20;;;;;;;18.20;9.40;;;;;;;13.25;51.69;95505.78;5042339;28;20052;-71
2021/11/12 10:08:49;;;;;;;15.88;9.38;;;;;;;13.52;50.12;95506.88;5041544;28;20438;-71
2021/11/12 10:11:28;;;;;;;17.00;9.80;;;;;;;13.44;51.24;95502.00;5041371;28;20041;-71
2021/11/12 10:14:11;;;;;;;15.23;8.40;;;;;;;13.60;49.55;95507.56;5043147;28;20040;-71
2021/11/12 10:16:42;;;;;;;21.77;9.90;;;;;;;13.93;48.73;95497.16;5041783;28;20033;-71
2021/11/12 10:19:19;;;;;;;13.95;8.60;;;;;;;14.44;47.61;95497.22;5041982;28;20136;-71
2021/11/12 10:21:54;;;;;;;15.07;7.63;;;;;;;15.02;45.52;95489.94;5043190;28;20043;-71
2021/11/12 10:24:28;;;;;;;14.70;7.80;;;;;;;15.45;45.08;95491.00;5043716;28;20044;-72
2021/11/12 10:26:58;;;;;;;12.45;7.97;;;;;;;15.77;42.11;95466.69;5042156;28;20418;-71
2021/11/12 10:29:40;;;;;;;14.52;8.88;;;;;;;16.18;41.17;95461.00;5041879;28;20041;-72
2021/11/12 10:32:08;;;;;;;13.30;7.78;;;;;;;15.39;44.64;95476.22;5043090;28;20426;-71
2021/11/12 10:34:38;;;;;;;15.93;8.48;;;;;;;15.23;44.93;95467.38;5041439;28;20047;-71
2021/11/12 10:37:29;;;;;;;12.45;7.30;;;;;;;15.49;45.03;95460.56;5041826;28;20115;-71
2021/11/12 10:40:11;;;;;;;15.98;8.43;;;;;;;16.21;42.28;95461.28;5041038;28;20033;-71
2021/11/12 10:42:40;;;;;;;17.40;9.38;;;;;;;16.94;39.05;95458.13;5043176;28;20041;-71
2021/11/12 10:45:11;;;;;;;13.75;8.48;;;;;;;17.03;40.51;95440.00;5041743;28;20426;-71
2021/11/12 10:47:48;;;;;;;12.20;7.47;;;;;;;16.56;41.35;95444.19;5041863;28;20045;-70
2021/11/12 10:50:17;;;;;;;12.77;7.43;;;;;;;16.10;40.75;95449.13;5040535;28;20498;-71
2021/11/12 10:52:45;;;;;;;12.77;8.10;;;;;;;16.08;40.18;95424.94;5041821;28;20052;-70
2021/11/12 10:55:17;;;;;;;11.05;7.43;;;;;;;16.40;40.67;95443.31;5041153;28;20048;-71
2021/11/12 10:58:00;;;;;;;15.30;8.43;;;;;;;17.66;37.65;95434.66;5040400;28;20048;-70
2021/11/12 11:00:33;;;;;;;13.87;9.00;;;;;;;18.38;35.58;95426.81;5041311;28;20056;-70
2021/11/12 11:03:03;;;;;;;12.07;7.28;;;;;;;18.65;35.32;95431.03;5022915;28;20135;-71
2021/11/12 11:05:33;;;;;;;9.98;7.28;;;;;;;17.85;36.64;95429.72;5042253;28;20053;-71
2021/11/12 11:08:04;;;;;;;10.27;7.20;;;;;;;17.42;37.42;95425.69;5041929;28;20036;-71
2021/11/12 11:10:40;;;;;;;12.73;7.50;;;;;;;17.78;35.69;95414.16;5021885;28;20037;-70
2021/11/12 11:13:10;;;;;;;8.63;5.80;;;;;;;18.62;34.14;95426.25;5041096;28;20043;-71
2021/11/12 11:15:38;;;;;;;10.25;6.68;;;;;;;19.11;33.44;95417.72;5042773;28;20064;-71
2021/11/12 11:18:17;;;;;;;9.80;6.32;;;;;;;18.27;34.86;95420.00;5023521;28;20063;-71
2021/11/12 11:20:59;;;;;;;12.27;6.47;;;;;;;16.89;39.22;95417.81;5039200;28;20049;-72
2021/11/12 11:23:28;;;;;;;11.75;6.25;;;;;;;17.15;37.85;95413.47;5040894;28;20061;-71
2021/11/12 11:26:00;;;;;;;17.90;6.72;;;;;;;17.48;36.18;95408.81;5039303;28;20048;-70
2021/11/12 11:28:28;;;;;;;9.00;6.35;;;;;;;17.20;38.09;95410.88;5041128;28;20064;-72
2021/11/12 11:30:55;;;;;;;11.93;6.50;;;;;;;16.91;37.64;95392.06;5041270;28;20100;-72
2021/11/12 11:33:23;;;;;;;12.10;6.70;;;;;;;17.58;36.18;95403.59;5041115;28;20045;-72
2021/11/12 11:35:55;;;;;;;12.35;6.72;;;;;;;17.33;36.25;95397.19;5023016;28;20479;-71
2021/11/12 11:38:27;;;;;;;14.52;6.72;;;;;;;17.51;36.06;95393.28;5040746;28;20056;-71
2021/11/12 11:40:55;;;;;;;11.30;6.18;;;;;;;17.53;36.68;95400.94;5041195;28;20409;-72
2021/11/12 11:43:24;;;;;;;10.90;5.53;;;;;;;17.51;37.03;95392.50;5041316;28;20041;-71
2021/11/12 11:45:58;;;;;;;9.90;5.20;;;;;;;18.14;35.33;95395.75;5041121;28;20411;-71
2021/11/12 11:48:25;;;;;;;14.27;5.43;;;;;;;19.17;33.03;95400.78;5040325;28;20059;-72
2021/11/12 11:51:23;;;;;;;7.22;4.82;;;;;;;19.92;32.16;95394.56;5041407;28;20039;-71
2021/11/12 11:53:50;;;;;;;6.97;4.72;;;;;;;19.68;31.93;95384.66;5023328;28;20053;-71
2021/11/12 11:56:26;;;;;;;7.25;4.57;;;;;;;19.34;32.10;95399.66;5040095;28;20044;-71
2021/11/12 11:58:57;;;;;;;7.13;4.82;;;;;;;18.90;32.45;95395.88;5042112;28;20049;-71
2021/11/12 12:01:24;;;;;;;8.77;5.55;;;;;;;18.96;32.15;95399.28;5039833;28;20053;-71
2021/11/12 12:04:09;;;;;;;7.65;4.60;;;;;;;20.00;30.31;95396.59;5041252;28;20090;-71
2021/11/12 12:06:37;;;;;;;9.68;4.30;;;;;;;19.73;30.01;95385.69;5041004;28;20115;-71
2021/11/12 12:09:11;;;;;;;8.27;4.20;;;;;;;19.50;31.08;95382.69;5041997;28;20045;-71
2021/11/12 12:11:46;;;;;;;7.45;5.18;;;;;;;20.00;30.64;95380.75;5039178;28;20041;-71
2021/11/12 12:14:23;;;;;;;5.78;4.03;;;;;;;20.32;28.78;95382.06;5041066;28;20052;-70
2021/11/12 12:16:59;;;;;;;6.55;4.32;;;;;;;19.61;29.64;95373.63;5040903;28;20142;-71
2021/11/12 12:19:59;;;;;;;6.40;4.10;;;;;;;19.90;28.66;95385.31;5040440;28;20469;-70
2021/11/12 12:37:17;;;;;;;8.98;5.07;;;;;;;19.07;30.22;95369.97;5043088;28;20510;-70
2021/11/12 13:22:58;;;;;;;28.17;9.10;;;;;;;20.84;26.97;95358.53;5042217;28;20049;-69
2021/11/12 13:25:39;;;;;;;8.98;4.95;;;;;;;20.64;27.64;95356.91;5039906;28;20037;-70
2021/11/12 13:28:21;;;;;;;5.57;3.80;;;;;;;20.84;27.58;95361.19;5040747;28;20048;-70
2021/11/12 13:30:50;;;;;;;7.00;4.28;;;;;;;20.95;27.48;95356.56;5020747;28;20071;-69
2021/11/12 13:33:45;;;;;;;6.40;4.20;;;;;;;21.27;27.27;95355.88;5039367;28;20484;-69
2021/11/12 13:36:25;;;;;;;62.40;21.13;;;;;;;21.24;27.18;95355.66;5035598;28;20072;-70
2021/11/12 13:39:00;;;;;;;16.25;6.22;;;;;;;20.98;27.19;95356.78;5039998;28;20064;-69
2021/11/12 13:41:35;;;;;;;8.70;4.45;;;;;;;21.08;27.31;95352.44;5023104;28;20507;-69
2021/11/12 13:44:08;;;;;;;9.13;4.13;;;;;;;21.19;27.32;95354.66;5039306;28;20049;-70
2021/11/12 13:46:46;;;;;;;22.08;11.57;;;;;;;21.14;27.19;95357.38;5042682;28;20063;-69
2021/11/12 13:49:47;;;;;;;17.10;6.90;;;;;;;20.86;27.79;95352.97;5039630;28;20048;-70
2021/11/12 13:52:14;;;;;;;9.48;6.05;;;;;;;20.64;28.06;95351.63;5034704;28;20118;-69
2021/11/12 13:54:48;;;;;;;7.55;4.60;;;;;;;20.53;27.87;95350.91;5037196;28;20041;-69
2021/11/12 13:57:18;;;;;;;6.68;4.28;;;;;;;20.27;28.32;95345.09;5041950;28;20127;-69
2021/11/12 13:59:58;;;;;;;10.35;5.80;;;;;;;20.09;28.38;95340.50;5041693;28;20048;-70
2021/11/12 14:02:26;;;;;;;10.10;5.30;;;;;;;19.96;29.02;95340.06;5038373;28;20033;-69
2021/11/12 14:04:54;;;;;;;9.98;5.32;;;;;;;19.92;29.15;95347.00;5016947;28;20099;-69
2021/11/12 14:07:22;;;;;;;8.82;6.10;;;;;;;19.70;29.70;95349.25;5018939;28;20061;-68
2021/11/12 14:10:04;;;;;;;7.93;5.22;;;;;;;19.56;30.05;95354.38;5018627;28;20046;-69
2021/11/12 14:12:36;;;;;;;9.93;5.65;;;;;;;19.50;30.06;95350.97;5018599;28;20135;-68
2021/11/12 14:15:15;;;;;;;9.75;6.47;;;;;;;19.31;30.26;95347.41;5024687;28;20079;-68
2021/11/12 14:18:02;;;;;;;11.27;6.22;;;;;;;19.04;31.40;95353.88;5015602;28;20057;-69
2021/11/12 14:20:30;;;;;;;10.82;6.55;;;;;;;19.11;31.18;95362.28;5009839;28;20068;-69
2021/11/12 14:23:04;;;;;;;17.73;9.13;;;;;;;19.02;31.60;95356.78;5018705;28;20044;-70
2021/11/12 14:26:08;;;;;;;11.98;8.38;;;;;;;18.70;32.07;95357.13;5018127;28;20061;-68
2021/11/12 14:29:06;;;;;;;17.95;10.00;;;;;;;18.73;32.33;95364.53;5017073;28;20064;-69
2021/11/12 14:36:58;;;;;;;17.00;10.43;;;;;;;18.13;33.17;95361.72;5011057;28;20041;-68
2021/11/12 14:45:13;;;;;;;32.67;18.70;;;;;;;17.34;35.48;95364.56;5020606;28;20034;-70
2021/11/12 14:56:38;;;;;;;46.92;22.73;;;;;;;15.92;38.84;95371.47;5013963;28;20521;-69
2021/11/12 14:58:52;;;;;;;40.40;20.30;;;;;;;15.61;39.63;95378.25;4996504;28;20053;-68
2021/11/12 15:01:23;;;;;;;46.17;22.40;;;;;;;15.40;40.65;95383.31;5007601;28;20045;-68
2021/11/12 15:03:51;;;;;;;37.92;20.05;;;;;;;14.94;40.77;95343.47;5009096;28;20054;-68
2021/11/12 15:06:23;;;;;;;38.20;18.35;;;;;;;14.93;40.62;95389.09;5034620;28;20491;-69
2021/11/12 15:11:37;;;;;;;37.58;15.75;;;;;;;14.48;42.36;95383.00;5033664;28;20033;-69
2021/11/12 15:32:50;;;;;;;44.80;22.38;;;;;;;11.94;50.95;95408.34;5092975;28;20052;-70
2021/11/12 15:35:19;;;;;;;39.90;21.17;;;;;;;11.52;51.89;95410.91;5100728;28;20032;-70
2021/11/12 15:37:55;;;;;;;37.47;20.05;;;;;;;11.42;52.46;95413.28;5099536;27;20504;-69
2021/11/12 15:40:46;;;;;;;33.58;17.63;;;;;;;11.13;53.98;95407.84;5101164;28;20059;-69
2021/11/12 15:48:27;;;;;;;22.52;12.48;;;;;;;10.31;56.98;95405.50;5101586;28;20043;-70
2021/11/12 16:07:03;;;;;;;11.23;7.28;;;;;;;9.38;56.71;95432.94;5095057;27;20054;-69
2021/11/12 16:12:18;;;;;;;7.03;4.57;;;;;;;9.30;56.73;95441.78;5098815;28;20119;-69
2021/11/12 16:22:55;;;;;;;7.95;5.25;;;;;;;8.17;60.88;95437.66;5096343;28;20545;-69
2021/11/12 16:25:25;;;;;;;8.20;5.38;;;;;;;8.17;60.54;95442.84;5100855;28;20485;-69
2021/11/12 16:27:58;;;;;;;8.20;5.53;;;;;;;8.14;60.76;95438.09;5102312;28;20122;-69
2021/11/12 16:30:29;;;;;;;7.97;4.97;;;;;;;8.15;60.74;95444.84;5100239;28;20048;-69
2021/11/12 16:32:58;;;;;;;7.75;4.70;;;;;;;7.93;62.36;95436.47;5089369;28;20055;-69
2021/11/12 16:35:27;;;;;;;13.57;6.75;;;;;;;7.90;63.12;95444.66;5085886;28;20117;-68
2021/11/12 16:37:58;;;;;;;6.72;3.92;;;;;;;7.77;63.59;95442.84;5086651;28;20047;-69
2021/11/12 16:43:07;;;;;;;5.97;3.58;;;;;;;7.61;65.31;95435.44;5084875;28;20062;-68
2021/11/12 17:01:25;;;;;;;7.75;4.40;;;;;;;7.69;62.97;95455.19;5093182;27;20040;-68
2021/11/12 17:06:46;;;;;;;8.68;5.47;;;;;;;7.42;63.89;95460.34;5069440;28;20048;-69
2021/11/12 17:11:51;;;;;;;8.15;5.22;;;;;;;7.47;63.83;95457.94;5070398;28;20050;-68
2021/11/12 17:14:30;;;;;;;5.88;3.88;;;;;;;7.55;63.80;95456.97;5082894;28;20048;-68
2021/11/12 17:47:08;;;;;;;5.20;3.25;;;;;;;6.31;68.12;95467.16;5080061;28;20143;-69
2021/11/12 18:03:37;;;;;;;7.28;3.08;;;;;;;6.39;70.96;95465.41;5081077;28;20564;-68
2021/11/12 18:06:18;;;;;;;5.05;2.42;;;;;;;6.24;68.73;95445.59;5082900;28;20047;-70
2021/11/12 21:47:23;;;;;;;76.55;24.80;;;;;;;4.95;74.40;95494.59;5080416;28;20040;-69
2021/11/12 21:49:50;;;;;;;28.65;12.60;;;;;;;5.02;73.86;95490.31;5081467;28;20056;-68
2021/11/12 21:52:17;;;;;;;32.53;12.77;;;;;;;5.00;72.97;95471.63;5088780;28;20044;-68
2021/11/12 21:54:44;;;;;;;71.03;25.65;;;;;;;5.10;72.90;95492.00;5085586;28;20517;-68
2021/11/12 21:57:10;;;;;;;90.90;31.08;;;;;;;5.00;72.39;95481.16;5083939;28;20545;-68
2021/11/12 21:59:37;;;;;;;45.38;20.20;;;;;;;4.96;72.88;95491.03;5081612;28;20043;-68
2021/11/12 22:02:05;;;;;;;76.57;27.50;;;;;;;4.87;73.27;95486.94;5082086;28;20068;-68
2021/11/12 22:04:32;;;;;;;33.83;16.10;;;;;;;4.88;72.98;95483.38;5087679;28;20052;-68
2021/11/12 22:07:01;;;;;;;28.42;12.82;;;;;;;4.94;72.74;95487.84;5085949;28;20059;-68
2021/11/12 22:09:29;;;;;;;84.60;28.90;;;;;;;4.83;73.06;95488.28;5078453;28;20542;-68
2021/11/12 22:11:56;;;;;;;142.35;42.58;;;;;;;4.65;73.19;95479.13;5081734;28;20032;-68
2021/11/12 22:14:24;;;;;;;51.40;23.23;;;;;;;4.42;74.23;95493.88;5082383;28;20052;-68